This is the latest recevied weather packets stored in our database for station/object WC4PEM-6. If no packets are shown the sender has not sent any weather packets the latest 10 day(s).
| Time | Temp. | Humidity | Pressure | Rain* | Wind** | Luminosity | Snow |
|---|---|---|---|---|---|---|---|
| 1778066703 | 21.11° C | 90% | 1015.6 hPa | 0 mm | - | - | - |
| 1778066687 | 21.11° C | 91% | 1015.6 hPa | 0 mm | - | - | - |
| 1778066404 | 21.11° C | 91% | 1015.6 hPa | 0 mm | - | - | - |
| 1778066103 | 21.11° C | 91% | 1015.6 hPa | 0 mm | - | - | - |
| 1778065804 | 20.56° C | 91% | 1015.7 hPa | 0 mm | - | - | - |
| 1778065504 | 20.56° C | 91% | 1015.7 hPa | 0 mm | - | - | - |
| 1778065207 | 20.56° C | 90% | 1015.5 hPa | 0 mm | - | - | - |
| 1778065203 | 20.56° C | 90% | 1015.7 hPa | 0 mm | - | - | - |
| 1778064903 | 20.56° C | 90% | 1015.5 hPa | 0 mm | - | - | - |
| 1778064604 | 20.56° C | 90% | 1015.5 hPa | 0 mm | - | - | - |
| 1778064304 | 20.56° C | 90% | 1015.5 hPa | 0 mm | - | - | - |
| 1778064004 | 20.56° C | 90% | 1015.4 hPa | 0 mm | - | - | - |
| 1778063704 | 20.56° C | 90% | 1015.4 hPa | 0 mm | - | - | - |
| 1778063404 | 20.56° C | 90% | 1015.4 hPa | 0 mm | - | - | - |
| 1778063104 | 20.56° C | 90% | 1015.3 hPa | 0 mm | - | - | - |
| 1778062877 | 20° C | 90% | 1015.2 hPa | 0 mm | - | - | - |
| 1778062804 | 20° C | 90% | 1015.2 hPa | 0 mm | - | - | - |
| 1778062554 | 21.67° C | 74% | 1016.2 hPa | 0 mm | - | - | - |
| 1778062504 | 20° C | 89% | 1015.4 hPa | 0 mm | - | - | - |
| 1778062204 | 20° C | 88% | 1015.3 hPa | 0 mm | - | - | - |
| 1778061904 | 20° C | 87% | 1015.3 hPa | 0 mm | - | - | - |
| 1778061604 | 20° C | 87% | 1015.3 hPa | 0 mm | - | - | - |
| 1778061304 | 20° C | 87% | 1015.3 hPa | 0 mm | - | - | - |
| 1778061004 | 20° C | 87% | 1015.1 hPa | 0 mm | - | - | - |
| 1778060704 | 20.56° C | 87% | 1015.1 hPa | 0 mm | - | - | - |
* Rain latest hour (hover to see other rain measurements)
** Current wind speed in m/s (hover to see current wind gust speed)